Terminal Aerodrome Forecast
Issued by NWS

Home | Current Version | Previous Version | Graphics & Text | Print | Product List | Glossary On
Versions: 1 2 3 4 5 6 7 8 9 10 11 12 13
000
FTUS43 KIWX 272339
TAFSBN
TAF
KSBN 272339Z 2800/2824 26006KT P6SM BKN080
     FM280800 22004KT P6SM VCSH OVC060
     FM281200 07005KT P6SM -SHRA OVC050
     FM282200 03010KT P6SM -SHRA SCT020 OVC040
     FM282300 03008KT 6SM -SHRA BR OVC015=

USA.gov is the U.S. government's official web portal to all federal, state and local government web resources and services.